Time;durP1;ratioP1;P1;durP2;ratioP2;P2;SDS_P1;SDS_P2;PMS_P1;PMS_P2;Temp;Humidity;BMP_temperature;BMP_pressure;BME280_temperature;BME280_humidity;BME280_pressure;Samples;Min_cycle;Max_cycle;Signal;HPM_P1;HPM_P2
2023/07/13 00:03:34;;;;;;;10.77;3.92;;;;;;;23.71;67.95;99633.50;7659217;32;36975;-79
2023/07/13 00:07:54;;;;;;;10.85;4.15;;;;;;;23.85;68.04;99614.34;7659388;32;40033;-79
2023/07/13 00:12:43;;;;;;;16.17;4.65;;;;;;;23.94;67.28;99556.47;7657863;32;40819;-79
2023/07/13 00:17:00;;;;;;;9.80;4.03;;;;;;;23.39;69.19;99461.13;7649539;32;37877;-78
2023/07/13 00:21:16;;;;;;;11.40;4.07;;;;;;;23.63;68.77;99460.81;7658685;32;37053;-79
2023/07/13 00:25:33;;;;;;;8.52;3.92;;;;;;;23.76;68.04;99471.78;7658901;32;39118;-79
2023/07/13 00:29:49;;;;;;;10.82;3.67;;;;;;;23.84;67.80;99476.34;7658515;32;40011;-79
2023/07/13 00:34:05;;;;;;;14.80;4.12;;;;;;;23.76;67.94;99394.66;7658749;32;38895;-79
2023/07/13 00:38:22;;;;;;;12.07;3.60;;;;;;;23.71;67.14;99383.84;7658753;32;37917;-79
2023/07/13 00:42:39;;;;;;;6.87;3.70;;;;;;;23.68;67.84;99395.72;7658856;32;39989;-79
2023/07/13 00:46:58;;;;;;;7.37;3.53;;;;;;;23.99;66.62;99394.72;7658659;32;39899;-78
2023/07/13 00:51:17;;;;;;;9.65;3.45;;;;;;;23.86;66.82;99396.06;7657606;32;37990;-78
2023/07/13 00:55:34;;;;;;;8.68;3.40;;;;;;;23.91;66.36;99392.97;7658810;32;37040;-78
2023/07/13 00:59:55;;;;;;;10.63;3.53;;;;;;;24.04;65.82;99387.22;7656611;32;39806;-79
2023/07/13 01:04:12;;;;;;;7.22;3.20;;;;;;;24.20;65.18;99379.53;7658534;32;40728;-79
2023/07/13 01:08:29;;;;;;;11.18;3.97;;;;;;;24.17;65.18;99391.41;7658534;32;37926;-78
2023/07/13 01:12:45;;;;;;;6.80;3.28;;;;;;;24.13;65.29;99401.69;7658404;32;37179;-79
2023/07/13 01:17:02;;;;;;;6.93;3.60;;;;;;;24.25;64.75;99395.91;7658459;32;39492;-79
2023/07/13 01:21:19;;;;;;;8.38;3.45;;;;;;;24.09;65.22;99393.25;7657752;32;40547;-80
2023/07/13 01:25:37;;;;;;;11.00;3.85;;;;;;;24.22;64.70;99379.16;7657107;32;37957;-78
2023/07/13 01:30:01;;;;;;;9.50;3.45;;;;;;;24.08;64.76;99383.31;7658176;32;36084;-78
2023/07/13 01:34:18;;;;;;;8.60;3.12;;;;;;;23.88;65.41;99421.53;7657989;32;39422;-79
2023/07/13 01:38:35;;;;;;;10.40;3.92;;;;;;;23.60;66.60;99411.47;7657082;32;40879;-78
2023/07/13 01:42:52;;;;;;;7.30;4.00;;;;;;;23.66;65.81;99409.19;7656698;32;37869;-78
2023/07/13 01:47:10;;;;;;;8.02;3.17;;;;;;;23.56;65.99;99410.62;7658100;32;37367;-78
2023/07/13 01:51:26;;;;;;;8.02;3.58;;;;;;;23.57;65.79;99420.56;7657895;32;40073;-78
2023/07/13 01:55:42;;;;;;;9.27;3.42;;;;;;;23.51;65.48;99424.81;7657790;32;40031;-78
2023/07/13 01:59:58;;;;;;;7.97;3.40;;;;;;;23.36;65.91;99420.16;7657747;32;37632;-79
2023/07/13 02:04:17;;;;;;;10.75;3.87;;;;;;;23.21;66.60;99413.50;7657798;32;36783;-79
2023/07/13 02:08:34;;;;;;;11.12;3.72;;;;;;;23.34;66.38;99408.59;7654808;32;40230;-79
2023/07/13 02:12:50;;;;;;;7.65;3.30;;;;;;;23.36;66.25;99395.91;7647975;32;41219;-78
2023/07/13 02:17:09;;;;;;;11.55;4.12;;;;;;;23.33;66.65;99406.97;7656249;32;37763;-79
2023/07/13 02:21:26;;;;;;;10.23;3.45;;;;;;;23.49;65.70;99399.34;7657314;32;37022;-77
2023/07/13 02:25:42;;;;;;;8.77;4.03;;;;;;;23.24;67.46;99401.63;7657169;32;40090;-78
2023/07/13 02:29:58;;;;;;;12.30;4.03;;;;;;;23.40;67.07;99385.69;7656529;32;40050;-78
2023/07/13 02:34:14;;;;;;;11.20;4.05;;;;;;;23.30;67.68;99402.97;7656989;32;38097;-78
2023/07/13 02:38:33;;;;;;;13.02;4.40;;;;;;;23.04;69.00;99392.44;7656570;32;36830;-78
2023/07/13 02:42:49;;;;;;;7.18;3.72;;;;;;;22.91;69.59;99402.12;7657038;32;39478;-78
2023/07/13 02:47:06;;;;;;;10.07;3.90;;;;;;;23.06;68.75;99390.16;7656109;32;39959;-77
2023/07/13 02:51:22;;;;;;;10.32;3.83;;;;;;;23.05;68.49;99380.19;7656549;32;37942;-77
2023/07/13 02:55:40;;;;;;;11.88;3.65;;;;;;;23.14;68.15;99378.00;7656538;32;37207;-78
2023/07/13 02:59:56;;;;;;;7.65;3.87;;;;;;;23.29;67.54;99381.88;7656004;32;40551;-78
2023/07/13 03:04:13;;;;;;;5.80;3.50;;;;;;;23.19;67.97;99380.47;7656388;32;39612;-78
2023/07/13 03:08:29;;;;;;;8.45;3.42;;;;;;;23.10;68.21;99399.37;7656080;32;38173;-78
2023/07/13 03:12:45;;;;;;;9.82;3.83;;;;;;;23.29;67.66;99401.34;7656187;32;37298;-77
2023/07/13 03:17:02;;;;;;;7.47;3.12;;;;;;;23.28;67.36;99404.47;7655688;32;40071;-78
2023/07/13 03:21:18;;;;;;;10.50;3.40;;;;;;;23.25;66.99;99412.41;7657521;32;40025;-78
2023/07/13 03:25:34;;;;;;;8.40;3.50;;;;;;;23.30;66.63;99407.69;7659513;32;38182;-77
2023/07/13 03:29:50;;;;;;;6.53;3.92;;;;;;;23.34;66.32;99403.81;7659536;32;36948;-78
2023/07/13 03:34:07;;;;;;;12.98;5.00;;;;;;;23.51;65.85;99397.00;7659544;32;39036;-77
2023/07/13 03:38:23;;;;;;;9.52;4.70;;;;;;;23.56;66.12;99384.75;7659467;32;40885;-78
2023/07/13 03:42:39;;;;;;;10.13;4.90;;;;;;;23.61;66.03;99401.13;7659330;32;37942;-78
2023/07/13 03:46:55;;;;;;;8.13;4.82;;;;;;;23.54;66.87;99421.31;7658644;32;37110;-78
2023/07/13 03:51:14;;;;;;;8.48;4.28;;;;;;;23.50;66.62;99423.19;7659165;32;39396;-78
2023/07/13 03:55:30;;;;;;;9.23;4.35;;;;;;;23.43;66.79;99431.41;7659182;32;38957;-78
2023/07/13 03:59:47;;;;;;;7.65;4.18;;;;;;;23.35;67.42;99443.56;7657863;32;38642;-77
2023/07/13 04:04:03;;;;;;;8.95;4.22;;;;;;;23.35;67.66;99446.34;7659198;32;37814;-78
2023/07/13 04:08:19;;;;;;;11.77;4.50;;;;;;;23.30;68.14;99441.91;7659191;32;40172;-78
2023/07/13 04:12:35;;;;;;;7.53;3.33;;;;;;;23.51;67.06;99435.94;7659075;32;41025;-78
2023/07/13 04:16:54;;;;;;;10.98;3.53;;;;;;;23.57;66.47;99442.81;7658521;32;37850;-78
2023/07/13 04:21:11;;;;;;;7.20;3.37;;;;;;;23.33;66.80;99460.59;7659058;32;36174;-78
2023/07/13 04:25:27;;;;;;;7.75;3.60;;;;;;;23.23;66.98;99480.66;7658898;32;39330;-79
2023/07/13 04:29:43;;;;;;;6.37;3.75;;;;;;;22.94;68.36;99488.34;7658850;32;40810;-77
2023/07/13 04:34:00;;;;;;;8.80;4.15;;;;;;;22.77;69.46;99503.44;7656633;32;37934;-78
2023/07/13 04:38:16;;;;;;;10.00;4.47;;;;;;;22.86;69.86;99509.59;7657803;32;37236;-78
2023/07/13 04:42:34;;;;;;;18.12;5.68;;;;;;;23.08;68.88;99517.66;7657579;32;39569;-77
2023/07/13 04:46:50;;;;;;;12.10;4.70;;;;;;;22.86;69.91;99534.63;7658453;32;40024;-77
2023/07/13 04:51:07;;;;;;;14.50;4.75;;;;;;;22.72;70.41;99539.03;7658592;32;38096;-78
2023/07/13 04:55:23;;;;;;;10.88;4.62;;;;;;;22.53;70.85;99556.44;7658451;32;37257;-79
2023/07/13 04:59:40;;;;;;;9.65;4.15;;;;;;;22.72;70.18;99569.59;7658352;32;40133;-78
2023/07/13 05:03:58;;;;;;;12.05;4.62;;;;;;;22.75;70.33;99605.00;7658423;32;40043;-78
2023/07/13 05:08:14;;;;;;;5.70;3.45;;;;;;;22.51;71.07;99651.22;7658545;32;37063;-82
2023/07/13 05:12:31;;;;;;;9.88;2.80;;;;;;;21.90;71.54;99683.59;7658457;32;37592;-79
2023/07/13 05:16:47;;;;;;;8.73;3.65;;;;;;;21.29;73.00;99714.13;7657706;32;39427;-79
2023/07/13 05:21:06;;;;;;;9.18;4.07;;;;;;;20.67;77.28;99724.31;7657785;32;40032;-80
2023/07/13 05:25:23;;;;;;;9.68;3.90;;;;;;;20.87;77.21;99737.28;7658319;32;38458;-80
2023/07/13 05:29:39;;;;;;;8.10;3.40;;;;;;;20.94;77.01;99751.38;7658084;32;37864;-79
2023/07/13 05:33:55;;;;;;;7.00;3.37;;;;;;;20.48;79.10;99769.06;7658217;32;39461;-80
2023/07/13 05:38:11;;;;;;;6.68;3.22;;;;;;;20.09;80.98;99763.66;7651394;32;39985;-80
2023/07/13 05:42:28;;;;;;;8.85;3.28;;;;;;;20.30;80.44;99769.22;7645724;32;38563;-79
2023/07/13 05:46:44;;;;;;;7.60;2.83;;;;;;;19.76;82.06;99780.94;7642022;32;37287;-80
2023/07/13 05:51:02;;;;;;;4.65;2.35;;;;;;;20.18;79.75;99785.75;7642916;32;39973;-82
2023/07/13 05:55:19;;;;;;;7.60;2.78;;;;;;;19.97;79.55;99782.94;7642766;32;40842;-73
2023/07/13 05:59:36;;;;;;;5.62;2.58;;;;;;;19.82;80.40;99778.81;7643106;32;38757;-75
2023/07/13 06:03:53;;;;;;;7.32;2.92;;;;;;;20.16;79.14;99758.44;7648312;32;38173;-80
2023/07/13 06:08:11;;;;;;;4.15;2.65;;;;;;;20.27;78.24;99748.56;7645059;32;39115;-79
2023/07/13 06:12:28;;;;;;;7.57;2.90;;;;;;;19.97;78.46;99745.06;7653044;32;40047;-79
2023/07/13 06:16:45;;;;;;;6.07;2.70;;;;;;;20.20;77.95;99734.44;7645748;32;37445;-77
2023/07/13 06:21:10;;;;;;;7.47;3.10;;;;;;;20.13;78.07;99709.28;7654614;32;37748;-78
2023/07/13 06:25:27;;;;;;;7.85;3.12;;;;;;;20.65;75.91;99680.31;7650541;32;39090;-78
2023/07/13 06:29:45;;;;;;;7.53;2.85;;;;;;;20.70;75.74;99644.09;7646174;32;40015;-77
2023/07/13 06:34:01;;;;;;;6.75;2.72;;;;;;;20.92;75.08;99493.25;7647814;32;38081;-77
2023/07/13 06:38:17;;;;;;;5.10;2.15;;;;;;;21.47;72.45;99102.72;7642703;32;37144;-78
2023/07/13 06:42:34;;;;;;;8.30;3.10;;;;;;;20.73;75.19;99033.25;7647685;32;40116;-70
2023/07/13 06:46:50;;;;;;;3.72;2.17;;;;;;;20.89;74.55;99144.06;7648253;32;39876;-76
2023/07/13 06:51:07;;;;;;;4.30;2.20;;;;;;;20.75;73.68;99216.50;7645786;32;38740;-71
2023/07/13 06:55:23;;;;;;;5.87;2.10;;;;;;;20.48;74.76;99202.28;7655595;32;36751;-71
2023/07/13 06:59:39;;;;;;;6.12;2.28;;;;;;;21.09;72.95;99214.22;7646568;32;40130;-72
2023/07/13 07:03:56;;;;;;;6.35;2.10;;;;;;;21.09;73.03;99305.69;7649853;32;39993;-71
2023/07/13 07:08:12;;;;;;;4.97;2.33;;;;;;;20.87;75.60;99482.41;7645062;32;37980;-71
2023/07/13 07:12:29;;;;;;;4.80;2.17;;;;;;;20.89;75.56;99463.47;7649462;32;36817;-72
2023/07/13 07:16:45;;;;;;;4.20;2.10;;;;;;;21.04;72.58;99494.38;7634923;32;39411;-71
2023/07/13 07:21:02;;;;;;;4.45;2.37;;;;;;;21.48;72.65;99509.19;7659795;32;39983;-73
2023/07/13 07:25:18;;;;;;;4.53;2.12;;;;;;;21.04;74.54;99514.59;7646975;32;38059;-77
2023/07/13 07:29:35;;;;;;;6.07;2.62;;;;;;;21.14;72.81;99529.91;7643653;32;37142;-76
2023/07/13 07:33:54;;;;;;;7.18;2.37;;;;;;;21.03;73.95;99531.56;7646086;32;39592;-79
2023/07/13 07:38:10;;;;;;;4.75;2.67;;;;;;;21.62;73.28;99544.03;7646002;32;40685;-80
2023/07/13 07:42:27;;;;;;;6.32;2.60;;;;;;;21.63;72.47;99562.28;7642062;32;38395;-80
2023/07/13 07:46:45;;;;;;;5.15;2.83;;;;;;;21.69;71.51;99558.09;7643886;32;36839;-78
2023/07/13 07:51:01;;;;;;;4.50;2.60;;;;;;;21.83;72.11;99566.03;7642534;32;39422;-82
2023/07/13 07:55:17;;;;;;;5.18;2.62;;;;;;;21.88;72.90;99560.22;7646625;32;38229;-83
2023/07/13 07:59:38;;;;;;;6.50;2.72;;;;;;;22.07;71.07;99565.91;7647843;32;38107;-82
2023/07/13 08:03:57;;;;;;;4.03;2.35;;;;;;;22.39;71.49;99571.56;7639117;32;37410;-82
2023/07/13 08:08:16;;;;;;;5.82;2.33;;;;;;;22.79;71.27;99561.44;7646748;32;38784;-82
2023/07/13 08:12:37;;;;;;;3.83;2.28;;;;;;;23.12;68.20;99574.97;7647782;32;40499;-70
2023/07/13 08:16:56;;;;;;;8.82;2.53;;;;;;;23.21;66.72;99569.19;7654189;32;38227;-69
2023/07/13 08:21:12;;;;;;;6.80;2.42;;;;;;;23.67;67.08;99574.19;7647386;32;37763;-69
2023/07/13 08:25:29;;;;;;;6.57;2.45;;;;;;;23.43;67.95;99576.84;7646359;32;39602;-71
2023/07/13 08:29:47;;;;;;;5.70;2.60;;;;;;;23.45;67.64;99576.50;7651072;32;39678;-72
2023/07/13 08:34:03;;;;;;;5.72;3.08;;;;;;;24.30;64.88;99562.72;7645630;32;37302;-73
2023/07/13 08:38:19;;;;;;;6.62;2.40;;;;;;;24.50;63.64;99557.09;7651823;32;37095;-74
2023/07/13 08:42:57;;;;;;;4.37;2.75;;;;;;;24.87;62.62;99553.72;7642993;32;39502;-73
2023/07/13 08:47:15;;;;;;;3.22;2.22;;;;;;;25.00;62.91;99541.19;7641267;32;39612;-73
2023/07/13 08:51:50;;;;;;;7.70;2.33;;;;;;;25.13;60.85;99541.78;7642924;32;37865;-73
2023/07/13 08:56:13;;;;;;;4.37;2.47;;;;;;;24.60;62.60;99539.78;7642138;32;37565;-76
2023/07/13 09:00:45;;;;;;;4.82;2.35;;;;;;;25.18;61.67;99551.81;7643081;32;39840;-78
2023/07/13 09:05:22;;;;;;;9.07;3.07;;;;;;;25.43;58.86;99549.41;7637225;32;40003;-77
2023/07/13 09:09:50;;;;;;;5.40;2.78;;;;;;;24.89;60.57;99559.75;7636024;32;37820;-78
2023/07/13 09:14:26;;;;;;;5.25;2.58;;;;;;;25.09;60.73;99550.13;7641464;32;36809;-77
2023/07/13 09:18:47;;;;;;;6.47;2.65;;;;;;;25.61;57.30;99544.03;7649841;32;40230;-78
2023/07/13 09:23:09;;;;;;;7.97;3.10;;;;;;;25.60;59.08;99551.63;7647175;32;39985;-77
2023/07/13 09:27:40;;;;;;;4.47;2.75;;;;;;;25.40;56.95;99564.09;7645621;32;37830;-78
2023/07/13 09:32:01;;;;;;;9.77;2.75;;;;;;;25.59;58.13;99571.53;7649030;32;37849;-78
2023/07/13 09:36:24;;;;;;;4.62;2.65;;;;;;;25.57;58.07;99574.69;7645513;32;39384;-78
2023/07/13 09:40:49;;;;;;;;;;;;;;;25.81;57.58;99565.03;7643303;32;40886;-78
2023/07/13 09:45:06;;;;;;;5.00;2.37;;;;;;;25.55;56.66;99562.31;7652412;32;38261;-78
2023/07/13 09:49:27;;;;;;;8.70;3.45;;;;;;;26.17;56.67;99559.09;7649598;32;36711;-77
2023/07/13 09:53:44;;;;;;;6.85;3.45;;;;;;;26.01;55.62;99560.13;7651803;32;38593;-79
2023/07/13 09:58:17;;;;;;;3.92;2.42;;;;;;;26.61;55.93;99552.69;7648048;32;40771;-80
2023/07/13 10:02:34;;;;;;;;;;;;;;;27.14;54.52;99562.72;7654809;32;38892;-80
2023/07/13 10:07:04;;;;;;;5.28;2.58;;;;;;;27.04;53.18;99546.66;7657824;32;36418;-80
2023/07/13 10:11:41;;;;;;;7.10;2.90;;;;;;;27.23;51.82;99554.78;7673971;32;39689;-80
2023/07/13 10:15:58;;;;;;;4.68;2.80;;;;;;;27.53;52.43;99550.97;7673966;32;39994;-80
2023/07/13 10:20:15;;;;;;;5.70;2.50;;;;;;;27.82;50.79;99551.06;7656972;32;38644;-81
2023/07/13 10:24:38;;;;;;;6.07;2.72;;;;;;;28.17;48.97;99555.22;7657105;32;38088;-79
2023/07/13 10:28:57;;;;;;;5.63;2.70;;;;;;;27.86;49.43;99549.09;7656292;32;39003;-81
2023/07/13 10:33:14;;;;;;;5.87;2.72;;;;;;;28.69;46.84;99535.28;7654904;32;40019;-79
2023/07/13 10:37:38;;;;;;;5.03;2.85;;;;;;;28.86;46.89;99545.69;7644495;32;38013;-77
2023/07/13 10:42:01;;;;;;;8.70;2.97;;;;;;;29.07;47.80;99550.47;7649395;32;37706;-77
2023/07/13 10:46:20;;;;;;;5.90;2.80;;;;;;;28.98;46.74;99536.84;7657781;32;39399;-77
2023/07/13 10:50:37;;;;;;;4.72;2.40;;;;;;;29.08;45.89;99542.81;7642270;32;40826;-76
2023/07/13 10:54:56;;;;;;;6.57;2.65;;;;;;;29.77;44.73;99545.09;7637778;32;38618;-76
2023/07/13 10:59:27;;;;;;;6.72;2.67;;;;;;;29.63;46.82;99530.25;7639890;32;37674;-76
2023/07/13 11:03:47;;;;;;;6.12;2.85;;;;;;;29.98;45.18;99545.34;7640287;32;39598;-76
2023/07/13 11:08:32;;;;;;;5.32;2.83;;;;;;;29.92;44.44;99548.59;7638392;32;42067;-76
2023/07/13 11:12:53;;;;;;;7.12;2.72;;;;;;;29.91;43.96;99529.37;7635845;32;37487;-77
2023/07/13 11:17:33;;;;;;;4.47;2.60;;;;;;;29.69;42.95;99531.44;7638901;32;36699;-78
2023/07/13 11:22:13;;;;;;;4.97;2.72;;;;;;;28.95;44.92;99531.25;7639002;32;39346;-80
2023/07/13 11:26:48;;;;;;;4.62;2.58;;;;;;;29.12;47.36;99530.41;7640313;32;39995;-82
2023/07/13 11:31:14;;;;;;;6.72;2.80;;;;;;;29.33;45.74;99529.56;7638304;32;37860;-77
2023/07/13 11:35:33;;;;;;;2.62;2.12;;;;;;;29.87;44.06;99540.62;7637667;32;36831;-77
2023/07/13 11:39:51;;;;;;;5.68;2.75;;;;;;;29.59;44.86;99547.91;7640355;32;39439;-78
2023/07/13 11:44:29;;;;;;;4.45;2.75;;;;;;;29.39;44.21;99549.63;7644038;32;41779;-78
2023/07/13 11:48:46;;;;;;;3.35;2.50;;;;;;;29.72;44.39;99555.91;7645700;32;38107;-71
2023/07/13 11:53:03;;;;;;;4.20;2.47;;;;;;;29.41;44.76;99555.62;7653017;32;37493;-71
2023/07/13 11:57:33;;;;;;;5.85;2.60;;;;;;;29.25;43.68;99544.03;7643275;32;40015;-69
2023/07/13 12:01:52;;;;;;;5.07;2.65;;;;;;;29.00;44.49;99542.06;7648873;32;40028;-71
2023/07/13 12:06:43;;;;;;;4.90;2.53;;;;;;;28.67;45.21;99544.09;7647456;32;38712;-72
2023/07/13 12:11:14;;;;;;;4.62;2.70;;;;;;;28.72;45.49;99535.28;7645764;32;36760;-73
2023/07/13 12:15:41;;;;;;;5.10;2.90;;;;;;;28.61;45.69;99528.84;7649816;32;39308;-78
2023/07/13 12:19:58;;;;;;;4.30;2.50;;;;;;;29.02;44.53;99531.22;7649273;32;40004;-78
2023/07/13 12:24:19;;;;;;;6.25;2.47;;;;;;;29.29;45.86;99528.00;7649804;32;37912;-78
2023/07/13 12:28:43;;;;;;;4.43;2.80;;;;;;;29.64;42.43;99529.06;7647000;32;36114;-80
2023/07/13 12:33:11;;;;;;;3.60;2.40;;;;;;;30.28;42.98;99528.72;7639945;32;40037;-78
2023/07/13 12:37:28;;;;;;;4.05;2.80;;;;;;;29.86;41.94;99510.12;7649195;32;38314;-80
2023/07/13 12:41:45;;;;;;;7.75;3.12;;;;;;;29.58;42.61;99512.63;7647394;32;38790;-78
2023/07/13 12:46:23;;;;;;;5.75;2.45;;;;;;;29.81;42.54;99508.53;7642811;32;36737;-78
2023/07/13 12:50:47;;;;;;;4.00;2.58;;;;;;;29.66;42.91;99509.78;7642334;32;39395;-78
2023/07/13 12:55:14;;;;;;;5.95;2.67;;;;;;;30.31;40.26;99502.59;7641543;32;40701;-78
2023/07/13 12:59:33;;;;;;;4.55;2.60;;;;;;;30.71;42.08;99491.81;7643633;32;37890;-79
2023/07/13 13:03:53;;;;;;;5.15;2.78;;;;;;;31.10;39.01;99489.03;7647147;32;36576;-79
2023/07/13 13:08:11;;;;;;;5.90;3.05;;;;;;;31.14;36.45;99501.09;7642707;32;40187;-80
2023/07/13 13:12:27;;;;;;;6.55;2.58;;;;;;;31.59;37.28;99496.13;7644327;32;40887;-79
2023/07/13 13:16:53;;;;;;;3.08;2.25;;;;;;;31.37;36.58;99487.09;7652066;32;37995;-78
2023/07/13 13:21:11;;;;;;;4.32;2.65;;;;;;;31.41;36.07;99473.81;7653027;32;38143;-80
2023/07/13 13:25:27;;;;;;;5.37;1.92;;;;;;;32.18;37.13;99472.38;7654176;32;39856;-79
2023/07/13 13:29:45;;;;;;;3.80;2.22;;;;;;;32.30;34.73;99462.47;7649833;32;39942;-79
2023/07/13 13:34:01;;;;;;;5.28;2.40;;;;;;;31.94;35.23;99473.50;7646898;32;37553;-79
2023/07/13 13:38:24;;;;;;;3.85;2.42;;;;;;;31.87;34.28;99482.84;7649709;32;37901;-79
2023/07/13 13:42:41;;;;;;;4.62;2.37;;;;;;;31.82;35.18;99486.97;7646865;32;38996;-79
2023/07/13 13:46:58;;;;;;;4.07;2.45;;;;;;;32.15;35.31;99478.03;7642803;32;40647;-79
2023/07/13 13:51:20;;;;;;;4.12;2.22;;;;;;;31.92;34.86;99488.00;7646702;32;37895;-80
2023/07/13 13:55:36;;;;;;;3.50;2.10;;;;;;;32.11;35.47;99482.94;7650074;32;37333;-79
2023/07/13 13:59:52;;;;;;;4.35;2.20;;;;;;;32.75;34.23;99452.87;7643720;32;39412;-81
2023/07/13 14:04:23;;;;;;;4.28;2.53;;;;;;;32.21;34.34;99470.69;7647082;32;40587;-81
2023/07/13 14:08:40;;;;;;;4.28;2.40;;;;;;;31.57;35.45;99470.41;7640708;32;36931;-86
2023/07/13 14:12:58;;;;;;;4.28;2.15;;;;;;;31.42;36.12;99477.41;7645263;32;37277;-85
2023/07/13 14:17:24;;;;;;;3.72;2.50;;;;;;;31.24;37.00;99484.06;7640482;32;40134;-79
2023/07/13 14:21:41;;;;;;;4.60;2.47;;;;;;;31.23;36.74;99495.75;7632346;32;39638;-81
2023/07/13 14:25:57;;;;;;;4.50;2.35;;;;;;;31.37;37.03;99472.25;7641880;32;37968;-81
2023/07/13 14:30:18;;;;;;;3.95;2.35;;;;;;;30.97;35.71;99486.78;7641165;32;37852;-80
2023/07/13 14:34:34;;;;;;;5.35;2.75;;;;;;;31.26;38.36;99501.31;7642169;32;40405;-84
2023/07/13 14:38:51;;;;;;;6.37;2.60;;;;;;;31.44;36.29;99494.69;7639684;32;40003;-83
2023/07/13 14:43:16;;;;;;;4.00;2.53;;;;;;;31.17;36.67;99484.16;7647252;32;38463;-81
2023/07/13 14:47:33;;;;;;;4.60;2.50;;;;;;;31.13;35.94;99493.84;7645960;32;37880;-82
2023/07/13 14:51:49;;;;;;;3.47;2.35;;;;;;;31.21;36.12;99493.34;7647847;32;39449;-83
2023/07/13 14:56:14;;;;;;;3.35;2.10;;;;;;;30.86;36.64;99486.84;7642471;32;39467;-81
2023/07/13 15:00:31;;;;;;;3.53;2.60;;;;;;;30.18;38.14;99507.09;7643916;32;37907;-78
2023/07/13 15:04:47;;;;;;;5.87;2.40;;;;;;;30.31;38.11;99508.22;7642484;32;37274;-80
2023/07/13 15:09:04;;;;;;;3.85;2.53;;;;;;;30.13;38.47;99521.59;7645859;32;39328;-80
2023/07/13 15:13:21;;;;;;;3.92;2.47;;;;;;;29.72;39.73;99516.59;7644660;32;40044;-79
2023/07/13 15:17:40;;;;;;;10.27;2.67;;;;;;;29.49;40.85;99537.53;7647513;32;38694;-80
2023/07/13 15:22:00;;;;;;;5.60;2.33;;;;;;;29.21;42.97;99533.59;7646799;32;36487;-82
2023/07/13 15:26:17;;;;;;;5.35;2.40;;;;;;;30.04;40.09;99527.66;7646682;32;40193;-82
2023/07/13 15:30:43;;;;;;;5.47;2.67;;;;;;;29.84;39.55;99523.75;7647532;32;39863;-84
2023/07/13 15:34:59;;;;;;;5.68;2.80;;;;;;;29.67;39.80;99517.81;7646683;32;38029;-80
2023/07/13 15:39:16;;;;;;;6.90;2.65;;;;;;;29.68;41.03;99510.97;7654955;32;37023;-79
2023/07/13 15:43:33;;;;;;;4.22;2.00;;;;;;;29.38;40.75;99509.50;7654268;32;39039;-79
2023/07/13 15:47:51;;;;;;;4.18;2.58;;;;;;;29.21;40.77;99511.16;7645085;32;40259;-80
2023/07/13 15:52:22;;;;;;;4.80;2.30;;;;;;;28.84;41.71;99506.81;7646005;32;38474;-80
2023/07/13 15:56:40;;;;;;;4.03;2.33;;;;;;;28.65;42.65;99510.84;7646880;32;36946;-79
2023/07/13 16:00:57;;;;;;;4.20;2.33;;;;;;;28.68;42.08;99512.03;7643965;32;40099;-79
2023/07/13 16:05:15;;;;;;;5.25;2.37;;;;;;;28.79;42.01;99512.81;7641612;32;40002;-78
2023/07/13 16:09:32;;;;;;;5.00;2.10;;;;;;;28.77;41.73;99498.41;7643541;32;37737;-78
2023/07/13 16:13:54;;;;;;;6.97;2.65;;;;;;;28.81;41.51;99510.41;7641176;32;38043;-79
2023/07/13 16:18:12;;;;;;;3.95;2.37;;;;;;;28.65;41.29;99508.03;7643790;32;39565;-79
2023/07/13 16:22:28;;;;;;;3.12;2.17;;;;;;;29.06;41.39;99515.16;7641868;32;40715;-80
2023/07/13 16:26:45;;;;;;;5.53;2.25;;;;;;;28.97;42.12;99512.00;7642950;32;38646;-80
2023/07/13 16:31:02;;;;;;;4.35;2.35;;;;;;;29.19;41.13;99519.19;7642848;32;35452;-81
2023/07/13 16:35:23;;;;;;;6.62;2.28;;;;;;;29.21;43.04;99532.81;7643917;32;40115;-81
2023/07/13 16:39:42;;;;;;;3.58;2.10;;;;;;;29.12;43.85;99535.22;7645016;32;39938;-80
2023/07/13 16:43:59;;;;;;;2.65;1.83;;;;;;;29.23;41.12;99535.22;7641941;32;37555;-80
2023/07/13 16:48:18;;;;;;;3.80;2.03;;;;;;;29.19;40.58;99540.84;7643709;32;37074;-79
2023/07/13 16:52:35;;;;;;;3.90;2.05;;;;;;;29.01;40.73;99540.84;7644230;32;39916;-80
2023/07/13 16:56:52;;;;;;;3.92;1.60;;;;;;;28.95;38.52;99543.25;7641725;32;40014;-78
2023/07/13 17:01:10;;;;;;;2.90;1.80;;;;;;;28.80;36.36;99548.09;7641437;32;39620;-80
2023/07/13 17:05:32;;;;;;;2.78;1.52;;;;;;;28.62;36.88;99562.09;7643678;32;37519;-80
2023/07/13 17:09:51;;;;;;;2.80;1.60;;;;;;;28.54;36.93;99568.09;7640817;32;39814;-80
2023/07/13 17:14:18;;;;;;;2.90;1.80;;;;;;;28.36;37.46;99563.25;7644031;32;39935;-81
2023/07/13 17:18:38;;;;;;;3.00;1.50;;;;;;;28.15;37.67;99563.22;7640896;32;37587;-80
2023/07/13 17:22:54;;;;;;;2.47;1.45;;;;;;;28.21;38.26;99572.84;7642100;32;37090;-81
2023/07/13 17:27:12;;;;;;;8.27;1.50;;;;;;;28.14;37.91;99575.63;7639975;32;40120;-81
2023/07/13 17:31:28;;;;;;;2.65;1.60;;;;;;;28.10;36.75;99590.44;7653012;32;40776;-83
2023/07/13 17:35:44;;;;;;;3.17;1.65;;;;;;;27.69;37.89;99593.44;7640682;32;37787;-78
2023/07/13 17:40:12;;;;;;;2.87;1.50;;;;;;;27.69;39.96;99596.25;7640526;32;36155;-82
2023/07/13 17:44:28;;;;;;;6.37;2.70;;;;;;;27.75;42.34;99587.47;7642548;32;40239;-78
2023/07/13 17:48:46;;;;;;;6.72;1.95;;;;;;;27.60;43.12;99584.59;7645049;32;39669;-80
2023/07/13 17:53:14;;;;;;;5.75;1.60;;;;;;;27.65;43.26;99589.03;7644888;32;38851;-73
2023/07/13 17:57:31;;;;;;;5.35;1.85;;;;;;;27.74;43.02;99583.88;7643432;32;36687;-81
2023/07/13 18:01:47;;;;;;;4.82;1.90;;;;;;;27.55;42.81;99582.19;7640829;32;40106;-81
2023/07/13 18:06:04;;;;;;;10.85;4.90;;;;;;;27.46;40.80;99576.16;7641122;32;39930;-82
2023/07/13 18:10:25;;;;;;;7.28;3.40;;;;;;;27.44;40.59;99586.91;7641809;32;37945;-82
2023/07/13 18:14:41;;;;;;;6.45;2.90;;;;;;;27.29;41.68;99589.63;7642884;32;37150;-85
2023/07/13 18:19:00;;;;;;;2.87;1.62;;;;;;;27.14;42.36;99597.09;7642351;32;39359;-84
2023/07/13 18:23:19;;;;;;;7.15;2.55;;;;;;;27.17;43.00;99595.53;7640917;32;39927;-79
2023/07/13 18:27:36;;;;;;;6.80;2.20;;;;;;;27.15;44.07;99589.50;7642556;32;37998;-82
2023/07/13 18:31:52;;;;;;;4.20;2.05;;;;;;;27.11;44.66;99591.47;7640193;32;39218;-85
2023/07/13 18:36:11;;;;;;;4.53;1.90;;;;;;;27.03;45.08;99599.03;7641983;32;39945;-80
2023/07/13 18:40:29;;;;;;;2.75;1.62;;;;;;;26.96;44.95;99608.16;7640193;32;40877;-81
2023/07/13 18:44:46;;;;;;;7.18;2.00;;;;;;;26.96;45.73;99619.34;7642389;32;38033;-82
2023/07/13 18:49:03;;;;;;;3.47;2.00;;;;;;;26.55;47.39;99616.53;7641165;32;37922;-81
2023/07/13 18:53:20;;;;;;;7.57;2.60;;;;;;;26.55;43.55;99604.56;7644197;32;39412;-80
2023/07/13 18:57:36;;;;;;;4.70;2.00;;;;;;;26.49;44.71;99629.28;7643690;32;39908;-81
2023/07/13 19:01:52;;;;;;;4.20;2.72;;;;;;;26.38;45.57;99634.72;7644194;32;38164;-81
2023/07/13 19:06:10;;;;;;;4.55;2.42;;;;;;;26.44;45.58;99626.84;7641348;32;36987;-77
2023/07/13 19:10:28;;;;;;;5.55;2.62;;;;;;;26.37;45.07;99632.31;7643621;32;39317;-77
2023/07/13 19:14:46;;;;;;;4.72;2.17;;;;;;;26.20;46.31;99637.34;7644084;32;39365;-76
2023/07/13 19:19:16;;;;;;;5.78;2.30;;;;;;;26.15;45.66;99637.69;7642982;32;37565;-77
2023/07/13 19:23:41;;;;;;;7.25;2.05;;;;;;;25.97;46.46;99637.44;7646026;32;37622;-77
2023/07/13 19:28:16;;;;;;;4.25;2.20;;;;;;;25.95;48.02;99650.19;7647822;32;39416;-77
2023/07/13 19:32:33;;;;;;;3.62;2.20;;;;;;;25.79;49.22;99665.13;7646969;32;39747;-78
2023/07/13 19:37:00;;;;;;;4.00;2.10;;;;;;;25.81;49.63;99665.53;7648024;32;38628;-78
2023/07/13 19:41:18;;;;;;;8.60;2.25;;;;;;;25.75;49.05;99675.44;7644591;32;37162;-78
2023/07/13 19:45:34;;;;;;;4.68;2.42;;;;;;;25.73;49.02;99675.00;7647635;32;39254;-79
2023/07/13 19:49:51;;;;;;;4.15;2.10;;;;;;;25.58;50.41;99685.16;7646785;32;40528;-79
2023/07/13 19:54:16;;;;;;;5.80;1.87;;;;;;;25.58;49.72;99696.34;7645761;32;38078;-78
2023/07/13 19:58:33;;;;;;;4.00;2.05;;;;;;;25.51;49.62;99709.34;7645789;32;37884;-77
2023/07/13 20:02:53;;;;;;;8.00;1.83;;;;;;;25.44;48.69;99715.62;7645145;32;39439;-77
2023/07/13 20:07:18;;;;;;;2.65;1.90;;;;;;;25.32;49.09;99724.19;7650126;32;40172;-78
2023/07/13 20:11:35;;;;;;;9.48;2.20;;;;;;;25.36;48.41;99731.47;7643842;32;38632;-76
2023/07/13 20:15:52;;;;;;;3.30;2.03;;;;;;;25.17;47.38;99739.88;7647663;32;37784;-77
2023/07/13 20:20:28;;;;;;;5.28;2.05;;;;;;;25.12;47.75;99755.72;7646435;32;39290;-77
2023/07/13 20:24:46;;;;;;;3.50;2.00;;;;;;;25.08;47.85;99760.44;7644587;32;39852;-77